createdAt,value
2022-10-28T00:01:22.891Z,12.59
2022-10-28T00:03:57.186Z,12.59
2022-10-28T00:06:33.992Z,12.59
2022-10-28T00:09:01.535Z,12.57
2022-10-28T00:11:33.963Z,12.51
2022-10-28T00:14:07.127Z,12.52
2022-10-28T00:16:38.070Z,12.53
2022-10-28T00:19:09.842Z,12.49
2022-10-28T00:21:40.248Z,12.41
2022-10-28T00:24:13.311Z,12.35
2022-10-28T00:26:43.498Z,12.36
2022-10-28T00:29:16.224Z,12.37
2022-10-28T00:31:44.335Z,12.45
2022-10-28T00:34:23.788Z,12.41
2022-10-28T00:36:50.439Z,12.35
2022-10-28T00:39:26.057Z,12.42
2022-10-28T00:42:03.779Z,12.42
2022-10-28T00:44:59.151Z,12.40
2022-10-28T00:47:42.230Z,12.52
2022-10-28T00:50:51.923Z,12.57
2022-10-28T00:53:32.404Z,12.63
2022-10-28T00:56:03.621Z,12.71
2022-10-28T00:58:31.659Z,12.75
2022-10-28T01:00:58.646Z,12.77
2022-10-28T01:03:26.674Z,12.80
2022-10-28T01:05:56.057Z,12.78
2022-10-28T01:08:25.833Z,12.70
2022-10-28T01:11:18.264Z,12.64
2022-10-28T01:14:20.464Z,12.56
2022-10-28T01:17:11.585Z,12.52
2022-10-28T01:20:21.502Z,12.64
2022-10-28T01:23:29.640Z,12.54
2022-10-28T01:26:14.524Z,12.36
2022-10-28T01:29:29.609Z,12.22
2022-10-28T01:32:35.425Z,12.23
2022-10-28T01:35:47.884Z,12.23
2022-10-28T01:42:16.568Z,12.08
2022-10-28T01:45:00.349Z,12.02
2022-10-28T01:48:05.081Z,12.02
2022-10-28T01:50:53.011Z,12.02
2022-10-28T01:53:33.923Z,12.13
2022-10-28T01:56:16.653Z,12.20
2022-10-28T01:58:48.675Z,12.24
2022-10-28T02:01:18.275Z,12.23
2022-10-28T02:03:54.256Z,12.33
2022-10-28T02:06:35.228Z,12.29
2022-10-28T02:09:29.242Z,12.41
2022-10-28T02:12:11.254Z,12.32
2022-10-28T02:15:40.997Z,12.26
2022-10-28T02:18:37.870Z,12.13
2022-10-28T02:22:08.659Z,12.05
2022-10-28T02:25:34.226Z,12.05
2022-10-28T02:28:19.280Z,11.94
2022-10-28T02:31:38.139Z,11.96
2022-10-28T02:34:38.606Z,11.92
2022-10-28T02:37:27.029Z,11.91
2022-10-28T02:40:05.804Z,11.81
2022-10-28T02:42:44.607Z,11.88
2022-10-28T02:45:26.924Z,11.91
2022-10-28T02:48:16.278Z,11.81
2022-10-28T02:51:14.444Z,11.76
2022-10-28T02:54:12.500Z,11.75
2022-10-28T02:57:18.532Z,11.82
2022-10-28T02:59:57.836Z,11.79
2022-10-28T03:02:29.248Z,11.66
2022-10-28T03:05:01.835Z,11.61
2022-10-28T03:07:36.950Z,11.60
2022-10-28T03:10:05.068Z,11.56
2022-10-28T03:12:34.984Z,11.50
2022-10-28T03:15:03.109Z,11.44
2022-10-28T03:17:33.084Z,11.44
2022-10-28T03:20:01.764Z,11.39
2022-10-28T03:22:31.678Z,11.36
2022-10-28T03:25:05.514Z,11.36
2022-10-28T03:27:36.021Z,11.34
2022-10-28T03:30:03.580Z,11.33
2022-10-28T03:32:33.193Z,11.42
2022-10-28T03:35:15.255Z,11.32
2022-10-28T03:38:00.466Z,11.41
2022-10-28T03:40:34.945Z,11.46
2022-10-28T03:43:02.343Z,11.44
2022-10-28T03:47:56.648Z,11.33
2022-10-28T03:50:23.948Z,11.38
2022-10-28T03:53:03.558Z,11.44
2022-10-28T03:55:34.585Z,11.62
2022-10-28T03:58:20.736Z,11.65
2022-10-28T04:00:56.994Z,11.72
2022-10-28T04:03:26.753Z,11.79
2022-10-28T04:06:18.904Z,11.81
2022-10-28T04:08:45.703Z,11.83
2022-10-28T04:11:12.640Z,11.82
2022-10-28T04:13:39.779Z,11.87
2022-10-28T04:16:07.386Z,11.98
2022-10-28T04:18:35.567Z,12.06
2022-10-28T04:21:06.251Z,12.12
2022-10-28T04:23:38.861Z,12.26
2022-10-28T04:26:06.140Z,12.37
2022-10-28T04:28:33.107Z,12.43
2022-10-28T04:31:05.039Z,12.44
2022-10-28T04:33:34.981Z,12.46
2022-10-28T04:36:05.344Z,12.44
2022-10-28T04:39:23.416Z,12.56
2022-10-28T04:41:54.468Z,12.54
2022-10-28T04:44:24.192Z,12.57
2022-10-28T04:46:51.217Z,12.53
2022-10-28T04:49:21.036Z,12.49
2022-10-28T04:51:58.119Z,12.45
2022-10-28T04:54:27.407Z,12.39
2022-10-28T04:56:55.317Z,12.32
2022-10-28T04:59:22.322Z,12.29
2022-10-28T05:01:52.207Z,12.23
2022-10-28T05:04:19.085Z,12.14
2022-10-28T05:06:46.233Z,12.05
2022-10-28T05:09:14.159Z,11.95
2022-10-28T05:11:44.059Z,11.86
2022-10-28T05:31:46.047Z,11.91
2022-10-28T05:34:12.927Z,11.93
2022-10-28T05:36:39.741Z,11.97
2022-10-28T05:39:06.560Z,11.99
2022-10-28T05:41:38.529Z,12.02
2022-10-28T05:44:06.292Z,12.02
2022-10-28T05:46:33.125Z,12.05
2022-10-28T05:49:00.008Z,12.07
2022-10-28T05:51:26.917Z,12.11
2022-10-28T05:53:54.465Z,12.15
2022-10-28T05:56:21.173Z,12.16
2022-10-28T06:01:17.638Z,12.22
2022-10-28T06:03:44.532Z,12.22
2022-10-28T06:06:11.373Z,12.16
2022-10-28T06:08:38.069Z,12.19
2022-10-28T06:11:03.561Z,12.16
2022-10-28T06:13:30.772Z,12.17
2022-10-28T06:15:57.528Z,12.15
2022-10-28T06:18:24.407Z,12.11
2022-10-28T06:20:54.599Z,12.16
2022-10-28T06:23:23.674Z,12.17
2022-10-28T06:26:00.957Z,12.13
2022-10-28T06:28:28.874Z,12.16
2022-10-28T06:31:08.072Z,12.13
2022-10-28T06:33:35.529Z,12.17
2022-10-28T06:36:05.388Z,12.14
2022-10-28T06:38:32.030Z,12.15
2022-10-28T06:40:58.892Z,12.12
2022-10-28T06:43:25.959Z,12.16
2022-10-28T06:45:55.443Z,12.20
2022-10-28T06:48:24.723Z,12.17
2022-10-28T06:50:51.727Z,12.17
2022-10-28T06:53:18.470Z,12.21
2022-10-28T06:55:57.510Z,12.14
2022-10-28T06:58:26.113Z,12.12
2022-10-28T07:00:53.869Z,12.15
2022-10-28T07:03:21.340Z,12.21
2022-10-28T07:05:51.480Z,12.25
2022-10-28T07:08:18.294Z,12.33
2022-10-28T07:10:47.549Z,12.37
2022-10-28T07:13:14.156Z,12.39
2022-10-28T07:15:40.832Z,12.40
2022-10-28T07:18:07.472Z,12.41
2022-10-28T07:20:34.131Z,12.44
2022-10-28T07:23:05.177Z,12.50
2022-10-28T07:25:32.179Z,12.55
2022-10-28T07:28:00.439Z,12.61
2022-10-28T07:30:28.823Z,12.70
2022-10-28T07:32:57.078Z,12.90
2022-10-28T07:35:23.903Z,12.92
2022-10-28T07:37:50.540Z,13.16
2022-10-28T07:40:17.935Z,13.49
2022-10-28T07:42:44.766Z,13.84
2022-10-28T07:45:11.517Z,14.05
2022-10-28T07:47:38.778Z,14.39
2022-10-28T07:50:08.032Z,14.63
2022-10-28T07:52:36.757Z,14.74
2022-10-28T07:55:07.733Z,15.10
2022-10-28T07:57:37.905Z,15.31
2022-10-28T08:00:08.735Z,15.60
2022-10-28T08:02:35.392Z,15.75
2022-10-28T08:05:02.422Z,15.87
2022-10-28T08:07:29.384Z,16.04
2022-10-28T08:09:56.058Z,16.34
2022-10-28T08:12:22.745Z,16.44
2022-10-28T08:14:49.457Z,16.73
2022-10-28T08:17:17.151Z,16.99
2022-10-28T08:19:43.779Z,17.01
2022-10-28T08:22:10.426Z,17.17
2022-10-28T08:24:37.106Z,17.40
2022-10-28T08:27:04.797Z,17.54
2022-10-28T08:29:31.539Z,17.75
2022-10-28T08:31:58.179Z,17.86
2022-10-28T08:34:29.754Z,17.98
2022-10-28T08:36:57.843Z,18.22
2022-10-28T08:39:24.742Z,18.46
2022-10-28T08:42:24.487Z,18.66
2022-10-28T08:45:34.609Z,18.66
2022-10-28T08:48:29.758Z,18.51
2022-10-28T08:51:13.816Z,18.42
2022-10-28T08:54:04.532Z,18.64
2022-10-28T08:56:45.973Z,18.82
2022-10-28T08:59:32.976Z,18.98
2022-10-28T09:02:24.774Z,19.16
2022-10-28T09:05:22.021Z,19.34
2022-10-28T09:07:50.001Z,19.41
2022-10-28T09:10:50.911Z,19.54
2022-10-28T09:14:07.820Z,19.75
2022-10-28T09:16:49.848Z,19.81
2022-10-28T09:19:41.914Z,19.84
2022-10-28T09:22:57.776Z,20.23
2022-10-28T09:26:37.554Z,20.39
2022-10-28T09:29:39.289Z,20.08
2022-10-28T09:32:43.204Z,19.75
2022-10-28T09:35:28.357Z,19.99
2022-10-28T09:38:25.461Z,20.11
2022-10-28T09:41:10.579Z,20.46
2022-10-28T09:43:52.639Z,20.74
2022-10-28T09:46:25.718Z,20.72
2022-10-28T09:49:02.320Z,21.09
2022-10-28T09:51:37.907Z,21.14
2022-10-28T09:54:04.646Z,21.39
2022-10-28T09:56:33.776Z,21.36
2022-10-28T09:59:03.159Z,21.45
2022-10-28T10:01:41.516Z,21.23
2022-10-28T10:04:26.368Z,21.25
2022-10-28T10:07:03.344Z,21.22
2022-10-28T10:09:37.055Z,21.44
2022-10-28T10:12:11.946Z,21.55
2022-10-28T10:14:56.617Z,21.31
2022-10-28T10:17:41.447Z,20.82
2022-10-28T10:20:17.681Z,20.86
2022-10-28T10:22:48.890Z,20.79
2022-10-28T10:25:18.488Z,20.95
2022-10-28T10:28:16.591Z,21.04
2022-10-28T10:30:53.261Z,21.26
2022-10-28T10:33:40.940Z,21.51
2022-10-28T10:36:10.533Z,21.49
2022-10-28T10:38:46.525Z,21.35
2022-10-28T10:41:44.415Z,21.31
2022-10-28T10:44:35.631Z,21.14
2022-10-28T10:47:05.943Z,21.45
2022-10-28T10:49:35.883Z,21.42
2022-10-28T10:52:23.612Z,21.07
2022-10-28T10:55:19.001Z,20.99
2022-10-28T10:57:48.610Z,21.42
2022-10-28T11:00:31.607Z,21.94
2022-10-28T11:03:00.686Z,22.41
2022-10-28T11:05:35.677Z,22.93
2022-10-28T11:08:07.569Z,23.03
2022-10-28T11:10:37.122Z,23.35
2022-10-28T11:13:26.671Z,23.48
2022-10-28T11:16:04.137Z,23.67
2022-10-28T11:18:45.365Z,23.62
2022-10-28T11:21:36.102Z,23.56
2022-10-28T11:24:27.440Z,23.64
2022-10-28T11:27:22.972Z,23.60
2022-10-28T11:29:50.223Z,23.52
2022-10-28T11:33:02.162Z,23.84
2022-10-28T11:36:01.303Z,23.76
2022-10-28T11:39:00.026Z,23.34
2022-10-28T11:42:04.421Z,22.77
2022-10-28T11:44:50.251Z,22.23
2022-10-28T11:48:22.706Z,22.29
2022-10-28T11:51:33.964Z,22.03
2022-10-28T11:54:43.077Z,21.47
2022-10-28T11:57:42.890Z,21.13
2022-10-28T12:00:40.394Z,20.95
2022-10-28T12:03:50.326Z,20.70
2022-10-28T12:07:28.438Z,20.46
2022-10-28T12:10:19.468Z,20.37
2022-10-28T12:13:47.343Z,20.39
2022-10-28T12:16:47.647Z,20.43
2022-10-28T12:19:38.013Z,20.30
2022-10-28T12:22:31.491Z,20.07
2022-10-28T12:25:14.618Z,20.31
2022-10-28T12:27:50.410Z,20.46
2022-10-28T12:30:47.545Z,20.68
2022-10-28T12:33:29.537Z,20.90
2022-10-28T12:36:27.452Z,21.06
2022-10-28T12:39:35.893Z,20.97
2022-10-28T12:42:28.496Z,20.89
2022-10-28T12:45:01.929Z,20.98
2022-10-28T12:47:43.357Z,21.00
2022-10-28T12:50:35.171Z,21.16
2022-10-28T12:53:01.699Z,21.31
2022-10-28T12:55:48.715Z,21.46
2022-10-28T12:58:29.626Z,21.50
2022-10-28T13:01:07.157Z,21.57
2022-10-28T13:03:39.243Z,21.90
2022-10-28T13:07:27.885Z,21.98
2022-10-28T13:10:42.364Z,21.74
2022-10-28T13:14:09.338Z,21.96
2022-10-28T13:17:35.292Z,21.96
2022-10-28T13:20:21.314Z,21.82
2022-10-28T13:23:19.719Z,21.64
2022-10-28T13:26:53.822Z,21.41
2022-10-28T13:29:35.804Z,20.85
2022-10-28T13:32:06.424Z,20.53
2022-10-28T13:34:40.897Z,20.35
2022-10-28T13:41:36.709Z,20.00
2022-10-28T13:44:32.459Z,19.84
2022-10-28T13:47:52.250Z,19.79
2022-10-28T13:50:37.589Z,19.71
2022-10-28T13:56:51.469Z,19.48
2022-10-28T14:00:38.769Z,19.36
2022-10-28T14:03:26.736Z,19.32
2022-10-28T14:06:00.366Z,19.24
2022-10-28T14:08:35.491Z,19.22
2022-10-28T14:12:27.803Z,19.11
2022-10-28T14:15:28.766Z,18.95
2022-10-28T14:18:37.252Z,18.90
2022-10-28T14:21:20.643Z,18.82
2022-10-28T14:24:09.999Z,18.71
2022-10-28T14:27:28.029Z,18.63
2022-10-28T14:29:57.695Z,18.52
2022-10-28T14:33:06.315Z,18.35
2022-10-28T14:35:50.692Z,18.23
2022-10-28T14:39:04.289Z,18.14
2022-10-28T14:42:20.213Z,18.01
2022-10-28T14:45:57.002Z,17.87
2022-10-28T14:48:47.947Z,17.79
2022-10-28T14:51:26.136Z,17.64
2022-10-28T14:54:01.338Z,17.54
2022-10-28T14:56:33.871Z,17.44
2022-10-28T14:59:43.687Z,17.43
2022-10-28T15:02:28.597Z,17.37
2022-10-28T15:05:25.919Z,17.16
2022-10-28T15:07:53.959Z,17.07
2022-10-28T15:10:35.453Z,17.02
2022-10-28T15:13:06.479Z,16.89
2022-10-28T15:15:37.315Z,16.82
2022-10-28T15:18:23.862Z,16.68
2022-10-28T15:21:16.119Z,16.54
2022-10-28T15:23:47.302Z,16.42
2022-10-28T15:26:17.770Z,16.37
2022-10-28T15:28:44.582Z,16.38
2022-10-28T15:31:11.204Z,16.38
2022-10-28T15:33:41.176Z,16.31
2022-10-28T15:36:25.607Z,16.29
2022-10-28T15:39:07.649Z,16.32
2022-10-28T15:41:49.388Z,16.22
2022-10-28T15:44:43.269Z,16.16
2022-10-28T15:47:33.913Z,16.08
2022-10-28T15:50:15.531Z,15.96
2022-10-28T15:52:45.335Z,15.95
2022-10-28T15:55:47.692Z,15.86
2022-10-28T15:58:19.395Z,15.91
2022-10-28T16:00:58.591Z,15.89
2022-10-28T16:03:47.095Z,15.83
2022-10-28T16:06:35.137Z,15.79
2022-10-28T16:09:09.419Z,15.67
2022-10-28T16:11:44.966Z,15.54
2022-10-28T16:14:45.448Z,15.48
2022-10-28T16:17:26.967Z,15.38
2022-10-28T16:20:04.624Z,15.30
2022-10-28T16:22:39.154Z,15.26
2022-10-28T16:25:23.094Z,15.32
2022-10-28T16:27:51.882Z,15.38
2022-10-28T16:30:18.795Z,15.53
2022-10-28T16:32:50.905Z,15.59
2022-10-28T16:35:24.396Z,15.60
2022-10-28T16:37:55.621Z,15.68
2022-10-28T16:40:50.916Z,15.65
2022-10-28T16:43:17.832Z,15.71
2022-10-28T16:45:44.610Z,15.68
2022-10-28T16:48:17.858Z,15.68
2022-10-28T16:51:13.930Z,15.67
2022-10-28T16:53:42.568Z,15.55
2022-10-28T16:56:16.345Z,15.45
2022-10-28T16:58:43.998Z,15.47
2022-10-28T17:01:11.537Z,15.45
2022-10-28T17:03:38.314Z,15.47
2022-10-28T17:06:05.438Z,15.49
2022-10-28T17:09:01.215Z,15.50
2022-10-28T17:11:21.492Z,15.39
2022-10-28T17:13:48.258Z,15.41
2022-10-28T17:16:14.979Z,15.37
2022-10-28T17:18:43.548Z,15.34
2022-10-28T17:21:10.164Z,15.40
2022-10-28T17:23:36.778Z,15.40
2022-10-28T17:26:03.489Z,15.36
2022-10-28T17:47:19.485Z,15.73
2022-10-28T18:11:23.036Z,16.14
2022-10-28T18:19:19.258Z,16.16
2022-10-28T19:53:47.140Z,16.20
2022-10-28T21:28:53.416Z,15.99
2022-10-28T21:31:22.256Z,15.89
2022-10-28T21:33:52.060Z,15.77
2022-10-28T21:36:21.934Z,15.88
2022-10-28T21:38:52.972Z,15.86
2022-10-28T21:41:21.698Z,15.90
2022-10-28T21:43:52.220Z,15.89
2022-10-28T21:46:22.750Z,15.86
2022-10-28T21:48:49.696Z,15.79
2022-10-28T21:51:18.508Z,15.77
2022-10-28T21:53:45.918Z,15.76
2022-10-28T21:56:19.131Z,15.75
2022-10-28T21:58:50.144Z,15.70
2022-10-28T22:01:24.180Z,15.69
2022-10-28T22:03:54.655Z,15.67
2022-10-28T22:06:22.189Z,15.61
2022-10-28T22:08:49.038Z,15.59
2022-10-28T22:11:20.550Z,15.63
2022-10-28T22:14:03.219Z,15.68
2022-10-28T22:16:34.137Z,15.73
2022-10-28T22:19:06.860Z,15.79
2022-10-28T22:21:42.873Z,15.79
2022-10-28T22:24:09.976Z,15.81
2022-10-28T22:26:39.006Z,15.74
2022-10-28T22:29:05.950Z,15.71
2022-10-28T22:31:35.606Z,15.64
2022-10-28T22:34:05.326Z,15.58
2022-10-28T22:36:35.135Z,15.54
2022-10-28T22:39:01.905Z,15.50
2022-10-28T22:41:31.959Z,15.51
2022-10-28T22:44:02.386Z,15.46
2022-10-28T22:46:36.447Z,15.48
2022-10-28T22:49:04.168Z,15.48
2022-10-28T22:51:33.787Z,15.47
2022-10-28T22:54:00.589Z,15.50
2022-10-28T22:56:27.835Z,15.44
2022-10-28T22:58:59.671Z,15.51
2022-10-28T23:01:31.464Z,15.47
2022-10-28T23:03:58.658Z,15.43
2022-10-28T23:06:27.871Z,15.41
2022-10-28T23:08:55.551Z,15.36
2022-10-28T23:11:23.512Z,15.31
2022-10-28T23:13:53.872Z,15.27
2022-10-28T23:16:23.255Z,15.26
2022-10-28T23:18:53.488Z,15.29
2022-10-28T23:21:25.149Z,15.22
2022-10-28T23:24:00.653Z,15.17
2022-10-28T23:26:29.714Z,15.12
2022-10-28T23:29:00.598Z,15.05
2022-10-28T23:31:28.728Z,14.98
2022-10-28T23:33:56.265Z,14.92
2022-10-28T23:36:23.245Z,14.86
2022-10-28T23:38:49.929Z,14.87
2022-10-28T23:41:18.779Z,14.92
2022-10-28T23:43:46.892Z,15.01
2022-10-28T23:46:13.529Z,15.06
2022-10-28T23:48:40.436Z,15.03
2022-10-28T23:51:07.753Z,14.97
2022-10-28T23:53:37.430Z,14.93
2022-10-28T23:56:05.038Z,14.94
2022-10-28T23:58:31.617Z,14.89
